High Level, High Level Airport (CYOJ)

NameHigh Level Airport
CityHigh Level
CountryCanada
ICAOCYOJ
IATAYOJ
Altitude338 m
CoordinatesGoogle Map
Live Air TrafficLiveATC.net
METARCYOJ 150100Z 03004KT 6SM -SN OVC025 M07/M10 A2999 RMK SC8 SLP183
2018-11-15 01:00:00 Wind: North-Northeast (30°) 2.06 m/s - Visibility: 9656.04 m - Weather: Light Snow - Temperature: -7 °C - Dew point: -10 °C - Humidity: 79.4% - Pressure: 1015.58 hPa

Sorry, no flights used the airport in this database.